Time;durP1;ratioP1;P1;durP2;ratioP2;P2;SDS_P1;SDS_P2;PMS_P1;PMS_P2;Temp;Humidity;BMP_temperature;BMP_pressure;BME280_temperature;BME280_humidity;BME280_pressure;Samples;Min_cycle;Max_cycle;Signal;HPM_P1;HPM_P2
2022/08/19 00:01:36;;;;;;;8.10;6.33;;;;;;;21.41;100.00;99909.78;5069991;28;20685;-72
2022/08/19 00:04:05;;;;;;;7.47;6.27;;;;;;;21.27;100.00;99900.31;5070196;28;20613;-72
2022/08/19 00:06:32;;;;;;;7.83;5.83;;;;;;;21.23;100.00;99906.84;5062460;28;20203;-72
2022/08/19 00:08:59;;;;;;;7.57;6.00;;;;;;;21.24;100.00;99903.22;5060198;28;20672;-70
2022/08/19 00:11:27;;;;;;;10.67;6.43;;;;;;;21.15;100.00;99909.28;5062565;28;20230;-70
2022/08/19 00:13:56;;;;;;;8.20;6.63;;;;;;;21.10;100.00;99909.63;5063849;28;20603;-69
2022/08/19 00:16:24;;;;;;;7.07;6.10;;;;;;;21.03;100.00;99905.81;5068926;28;20269;-70
2022/08/19 00:18:51;;;;;;;8.17;6.27;;;;;;;21.02;100.00;99909.44;5066013;28;20212;-69
2022/08/19 00:21:17;;;;;;;8.43;6.70;;;;;;;20.98;100.00;99919.44;5070946;28;20889;-69
2022/08/19 00:23:44;;;;;;;8.63;6.80;;;;;;;20.95;100.00;99916.19;5059633;28;20207;-70
2022/08/19 00:26:11;;;;;;;7.37;6.10;;;;;;;20.98;100.00;99906.19;5070968;28;20198;-69
2022/08/19 00:28:38;;;;;;;7.80;6.27;;;;;;;20.96;100.00;99909.91;5067873;28;20202;-70
2022/08/19 00:31:07;;;;;;;8.43;6.63;;;;;;;20.94;100.00;99906.56;5066316;28;20253;-69
2022/08/19 00:33:35;;;;;;;8.27;6.60;;;;;;;20.93;100.00;99902.22;5067731;28;20209;-70
2022/08/19 00:36:06;;;;;;;9.03;6.67;;;;;;;20.90;100.00;99894.53;5065097;28;20218;-69
2022/08/19 00:38:34;;;;;;;8.43;6.67;;;;;;;20.90;100.00;99902.47;5066305;28;20211;-69
2022/08/19 00:41:00;;;;;;;10.17;6.43;;;;;;;20.89;100.00;99906.09;5081787;22;20589;-70
2022/08/19 00:43:28;;;;;;;10.87;6.50;;;;;;;20.85;100.00;99897.53;5042609;28;20222;-70
2022/08/19 00:45:55;;;;;;;7.93;6.70;;;;;;;20.87;100.00;99900.91;5033899;28;20231;-72
2022/08/19 00:48:24;;;;;;;7.37;6.13;;;;;;;20.84;100.00;99895.84;5037849;28;20744;-73
2022/08/19 00:50:52;;;;;;;8.20;6.77;;;;;;;20.84;100.00;99898.50;5032602;28;20702;-72
2022/08/19 00:53:22;;;;;;;10.03;6.50;;;;;;;20.85;100.00;99897.53;5045092;28;20253;-72
2022/08/19 00:55:51;;;;;;;11.33;7.00;;;;;;;20.86;100.00;99898.38;5028845;28;20196;-72
2022/08/19 00:58:22;;;;;;;10.07;7.70;;;;;;;20.84;100.00;99895.84;5028822;28;20196;-72
2022/08/19 01:00:49;;;;;;;10.63;7.10;;;;;;;20.85;100.00;99889.59;5044114;28;20221;-72
2022/08/19 01:03:18;;;;;;;8.93;6.87;;;;;;;20.84;100.00;99885.25;5048315;28;20200;-72
2022/08/19 01:05:49;;;;;;;9.17;7.30;;;;;;;20.84;100.00;99884.41;5034338;28;20222;-72
2022/08/19 01:08:17;;;;;;;9.90;7.50;;;;;;;20.84;100.00;99893.19;5046302;28;20191;-72
2022/08/19 01:10:47;;;;;;;8.97;6.97;;;;;;;20.84;100.00;99887.91;5048182;28;20203;-72
2022/08/19 01:13:15;;;;;;;9.00;7.07;;;;;;;20.83;100.00;99880.94;5048385;28;20234;-72
2022/08/19 01:15:46;;;;;;;10.40;7.23;;;;;;;20.79;100.00;99879.47;5048334;28;20202;-72
2022/08/19 01:18:14;;;;;;;8.60;6.33;;;;;;;20.80;100.00;99875.88;5030567;28;20195;-73
2022/08/19 01:20:42;;;;;;;10.97;7.00;;;;;;;20.77;100.00;99879.63;5033510;28;20289;-72
2022/08/19 01:23:10;;;;;;;9.27;7.20;;;;;;;20.71;100.00;99868.69;5047838;28;20211;-72
2022/08/19 01:25:44;;;;;;;8.07;6.53;;;;;;;20.70;100.00;99874.94;5048270;28;20233;-72
2022/08/19 01:28:17;;;;;;;9.17;7.43;;;;;;;20.61;100.00;99872.06;5048328;28;20195;-72
2022/08/19 01:30:45;;;;;;;9.37;7.27;;;;;;;20.56;100.00;99876.88;5048164;28;20233;-72
2022/08/19 01:33:11;;;;;;;8.87;7.00;;;;;;;20.56;100.00;99887.47;5045050;28;20212;-72
2022/08/19 01:35:38;;;;;;;9.93;7.30;;;;;;;20.56;100.00;99886.59;5026786;28;20195;-72
2022/08/19 01:38:07;;;;;;;9.03;7.30;;;;;;;20.53;100.00;99895.63;5037390;28;20199;-72
2022/08/19 01:40:37;;;;;;;9.27;7.20;;;;;;;20.54;100.00;99892.00;5048004;28;20854;-72
2022/08/19 01:43:05;;;;;;;10.20;7.70;;;;;;;20.51;100.00;99897.56;5055588;28;20253;-72
2022/08/19 01:45:34;;;;;;;9.03;7.00;;;;;;;20.48;100.00;99892.50;5041401;28;20220;-72
2022/08/19 01:48:01;;;;;;;9.83;8.13;;;;;;;20.42;100.00;99901.78;5032142;28;20188;-72
2022/08/19 01:50:28;;;;;;;8.97;7.13;;;;;;;20.38;100.00;99894.19;5046052;28;20203;-72
2022/08/19 01:52:54;;;;;;;8.73;7.00;;;;;;;20.31;100.00;99893.00;5050813;28;20774;-72
2022/08/19 01:55:23;;;;;;;9.50;7.27;;;;;;;20.26;100.00;99897.81;5045474;28;20208;-72
2022/08/19 01:57:54;;;;;;;8.03;7.13;;;;;;;20.27;100.00;99894.22;5033311;28;20200;-73
2022/08/19 02:00:24;;;;;;;10.17;7.43;;;;;;;20.22;100.00;99902.50;5051075;28;20199;-72
2022/08/19 02:02:51;;;;;;;10.57;7.23;;;;;;;20.17;100.00;99899.38;5046470;28;20675;-72
2022/08/19 02:05:20;;;;;;;12.87;7.97;;;;;;;20.14;100.00;99889.88;5051211;28;20613;-72
2022/08/19 02:07:47;;;;;;;8.77;7.63;;;;;;;20.07;100.00;99887.81;5044177;28;20213;-72
2022/08/19 02:10:17;;;;;;;9.60;7.50;;;;;;;20.02;100.00;99896.13;5031955;28;20188;-73
2022/08/19 02:12:43;;;;;;;10.23;7.43;;;;;;;19.94;100.00;99895.84;5031671;28;20294;-72
2022/08/19 02:15:12;;;;;;;9.10;6.90;;;;;;;19.89;100.00;99890.06;5031781;28;20214;-72
2022/08/19 02:17:39;;;;;;;10.00;7.60;;;;;;;19.82;100.00;99892.34;5031628;28;20192;-72
2022/08/19 02:20:07;;;;;;;9.40;7.37;;;;;;;19.79;100.00;99892.59;5031609;28;20192;-72
2022/08/19 02:22:35;;;;;;;10.23;8.20;;;;;;;19.74;100.00;99898.22;5037901;28;20791;-72
2022/08/19 02:25:02;;;;;;;10.50;7.37;;;;;;;19.69;100.00;99895.06;5045280;28;20260;-72
2022/08/19 02:27:28;;;;;;;11.73;8.03;;;;;;;19.59;100.00;99889.59;5051722;28;20203;-72
2022/08/19 02:29:55;;;;;;;9.80;7.57;;;;;;;19.60;100.00;99887.81;5051469;28;20195;-72
2022/08/19 02:32:22;;;;;;;10.40;8.20;;;;;;;19.48;100.00;99901.00;5051961;28;20222;-72
2022/08/19 02:34:49;;;;;;;10.93;8.20;;;;;;;19.42;100.00;99897.97;5051533;28;20195;-72
2022/08/19 02:39:56;;;;;;;10.20;7.97;;;;;;;19.43;100.00;99902.28;5043422;28;20925;-72
2022/08/19 02:42:23;;;;;;;10.70;8.27;;;;;;;19.41;100.00;99905.03;5051083;28;20223;-72
2022/08/19 02:44:49;;;;;;;10.20;7.60;;;;;;;19.35;100.00;99894.94;5048215;28;20222;-72
2022/08/19 02:47:15;;;;;;;13.03;8.30;;;;;;;19.26;100.00;99891.19;5030545;28;20199;-72
2022/08/19 02:49:43;;;;;;;11.50;8.40;;;;;;;19.23;100.00;99893.22;5032329;28;20206;-72
2022/08/19 02:52:11;;;;;;;11.97;8.43;;;;;;;19.18;100.00;99896.19;5050872;28;20655;-72
2022/08/19 02:54:38;;;;;;;10.20;7.87;;;;;;;19.14;100.00;99894.72;5050877;28;20642;-72
2022/08/19 02:57:05;;;;;;;9.27;7.73;;;;;;;19.15;100.00;99903.50;5051365;28;20210;-72
2022/08/19 02:59:31;;;;;;;13.80;8.57;;;;;;;19.10;100.00;99907.31;5046457;28;20265;-72
2022/08/19 03:01:58;;;;;;;10.23;8.10;;;;;;;19.13;100.00;99921.25;5063406;28;20226;-72
2022/08/19 03:04:24;;;;;;;8.87;7.60;;;;;;;19.14;100.00;99922.94;5041475;28;20210;-72
2022/08/19 03:06:52;;;;;;;11.20;8.00;;;;;;;19.13;100.00;99919.47;5050140;28;20188;-72
2022/08/19 03:09:20;;;;;;;10.67;7.43;;;;;;;19.11;100.00;99916.91;5051215;28;20203;-72
2022/08/19 03:11:47;;;;;;;11.13;7.80;;;;;;;19.09;100.00;99924.13;5050907;28;20215;-72
2022/08/19 03:14:14;;;;;;;10.57;8.10;;;;;;;19.06;100.00;99924.34;5050756;28;20203;-72
2022/08/19 03:16:44;;;;;;;12.53;8.83;;;;;;;19.07;100.00;99918.09;5045255;28;20192;-72
2022/08/19 03:19:11;;;;;;;11.27;8.30;;;;;;;19.09;100.00;99915.34;5031498;28;20200;-72
2022/08/19 03:21:37;;;;;;;9.80;7.97;;;;;;;19.08;100.00;99918.94;5050502;28;20221;-72
2022/08/19 03:24:07;;;;;;;11.30;8.00;;;;;;;19.10;100.00;99924.97;5050841;28;20214;-72
2022/08/19 03:26:35;;;;;;;11.50;8.33;;;;;;;19.13;100.00;99923.91;5043871;28;20215;-72
2022/08/19 03:29:03;;;;;;;11.47;8.37;;;;;;;19.16;100.00;99926.34;5030513;28;20192;-72
2022/08/19 03:31:31;;;;;;;9.93;8.07;;;;;;;19.19;100.00;99928.72;5033782;28;20215;-72
2022/08/19 03:33:57;;;;;;;11.77;8.57;;;;;;;19.20;100.00;99918.06;5031429;28;20203;-72
2022/08/19 03:36:26;;;;;;;11.97;8.80;;;;;;;19.22;100.00;99933.78;5038269;28;20206;-72
2022/08/19 03:38:55;;;;;;;11.60;9.30;;;;;;;19.19;100.00;99941.94;5043211;28;20195;-72
2022/08/19 03:41:25;;;;;;;10.43;8.10;;;;;;;19.20;100.00;99941.81;5029741;28;20227;-72
2022/08/19 03:43:53;;;;;;;10.43;8.50;;;;;;;19.17;100.00;99944.72;5030195;28;20188;-72
2022/08/19 03:46:22;;;;;;;11.20;8.30;;;;;;;19.14;100.00;99942.28;5042924;28;20207;-72
2022/08/19 03:48:53;;;;;;;11.67;8.23;;;;;;;19.14;100.00;99941.44;5041092;28;20198;-72
2022/08/19 03:51:21;;;;;;;11.10;8.00;;;;;;;19.11;100.00;99930.13;5045715;28;20216;-72
2022/08/19 03:53:49;;;;;;;11.37;8.40;;;;;;;19.09;100.00;99929.41;5042553;28;20199;-72
2022/08/19 03:56:16;;;;;;;11.07;8.30;;;;;;;19.08;100.00;99938.31;5049609;28;20562;-72
2022/08/19 03:58:45;;;;;;;11.07;7.97;;;;;;;19.10;100.00;99935.53;5065309;28;20196;-72
2022/08/19 04:01:13;;;;;;;12.27;7.73;;;;;;;19.11;100.00;99931.94;5049885;28;20219;-72
2022/08/19 04:03:40;;;;;;;10.77;8.33;;;;;;;19.08;100.00;99925.09;5048992;28;20199;-72
2022/08/19 04:06:12;;;;;;;11.57;8.47;;;;;;;19.08;100.00;99924.22;5048363;28;20233;-72
2022/08/19 04:08:39;;;;;;;11.57;8.47;;;;;;;19.06;100.00;99919.06;5047176;28;20203;-72
2022/08/19 04:11:08;;;;;;;10.40;7.47;;;;;;;19.08;100.00;99930.38;5049360;28;20684;-72
2022/08/19 04:13:34;;;;;;;11.00;8.50;;;;;;;19.10;100.00;99936.38;5049199;28;20596;-72
2022/08/19 04:16:03;;;;;;;10.87;8.33;;;;;;;19.13;100.00;99932.66;5049305;28;20184;-72
2022/08/19 04:18:31;;;;;;;11.17;8.23;;;;;;;19.17;100.00;99938.56;5049447;28;20274;-72
2022/08/19 04:20:58;;;;;;;9.97;8.03;;;;;;;19.24;100.00;99934.53;5048060;28;20226;-72
2022/08/19 04:23:24;;;;;;;11.80;8.07;;;;;;;19.32;100.00;99932.16;5049768;28;20203;-72
2022/08/19 04:25:51;;;;;;;12.20;7.70;;;;;;;19.32;100.00;99929.53;5049237;28;20203;-72
2022/08/19 04:28:17;;;;;;;14.47;8.53;;;;;;;19.35;100.00;99933.72;5050681;28;20199;-72
2022/08/19 04:30:47;;;;;;;10.60;7.97;;;;;;;19.36;100.00;99928.34;5037435;28;20511;-72
2022/08/19 04:33:18;;;;;;;10.97;7.87;;;;;;;19.41;100.00;99939.41;5034036;28;20211;-73
2022/08/19 04:35:48;;;;;;;10.37;7.80;;;;;;;19.41;100.00;99942.06;5069133;28;20564;-72
2022/08/19 04:38:16;;;;;;;10.60;7.83;;;;;;;19.38;100.00;99939.63;5054860;28;20291;-72
2022/08/19 04:43:28;;;;;;;11.00;7.73;;;;;;;19.41;100.00;99941.22;5027376;28;20712;-72
2022/08/19 04:45:55;;;;;;;8.87;7.60;;;;;;;19.42;100.00;99938.47;5044409;28;20215;-72
2022/08/19 04:48:26;;;;;;;11.03;8.53;;;;;;;19.41;100.00;99931.47;5032839;28;20192;-72
2022/08/19 04:50:57;;;;;;;10.50;7.87;;;;;;;19.42;100.00;99925.25;5051874;28;20561;-72
2022/08/19 04:53:23;;;;;;;10.40;7.93;;;;;;;19.49;100.00;99925.66;5047269;28;20213;-72
2022/08/19 04:55:50;;;;;;;10.83;8.00;;;;;;;19.53;100.00;99940.31;5048936;28;20199;-72
2022/08/19 04:58:17;;;;;;;11.00;8.20;;;;;;;19.64;100.00;99942.16;5048223;28;20213;-72
2022/08/19 05:00:44;;;;;;;10.50;8.03;;;;;;;19.71;100.00;99939.91;5048614;28;20217;-72
2022/08/19 05:03:11;;;;;;;9.33;7.43;;;;;;;19.75;100.00;99941.38;5048589;28;20698;-72
2022/08/19 05:05:41;;;;;;;10.13;7.90;;;;;;;19.76;100.00;99941.25;5047672;28;20573;-72
2022/08/19 05:08:07;;;;;;;10.70;7.50;;;;;;;19.78;100.00;99935.84;5046905;28;20199;-72
2022/08/19 05:10:35;;;;;;;10.13;7.97;;;;;;;19.80;100.00;99932.13;5048483;28;20199;-72
2022/08/19 05:13:02;;;;;;;10.67;7.90;;;;;;;19.80;100.00;99918.06;5048663;28;20561;-72
2022/08/19 05:15:28;;;;;;;10.67;8.03;;;;;;;19.81;100.00;99917.13;5068116;28;20290;-72
2022/08/19 05:23:24;;;;;;;10.30;8.37;;;;;;;19.99;100.00;99950.09;5048007;28;20207;-72
2022/08/19 05:25:51;;;;;;;10.17;8.07;;;;;;;20.07;100.00;99946.00;5061329;28;20219;-72
2022/08/19 05:28:19;;;;;;;12.07;8.77;;;;;;;20.02;100.00;99944.56;5047981;28;20195;-72
2022/08/19 05:30:45;;;;;;;12.07;8.50;;;;;;;20.04;100.00;99945.28;5048143;28;20653;-72
2022/08/19 05:33:12;;;;;;;9.93;7.90;;;;;;;20.09;100.00;99946.72;5048141;28;20229;-72
2022/08/19 05:35:40;;;;;;;10.33;8.10;;;;;;;20.09;100.00;99952.03;5047956;28;20195;-72
2022/08/19 05:38:08;;;;;;;16.13;8.23;;;;;;;20.14;100.00;99958.69;5048036;28;20272;-72
2022/08/19 05:40:35;;;;;;;12.07;8.30;;;;;;;20.22;100.00;99958.06;5048137;28;20191;-72
2022/08/19 05:43:02;;;;;;;10.50;8.17;;;;;;;20.20;100.00;99963.47;5045958;28;20317;-72
2022/08/19 05:45:28;;;;;;;8.57;7.40;;;;;;;20.22;100.00;99974.78;5048173;28;20203;-72
2022/08/19 05:47:55;;;;;;;12.63;9.13;;;;;;;20.23;100.00;99971.19;5047643;28;20230;-71
2022/08/19 05:50:22;;;;;;;12.90;8.27;;;;;;;20.29;100.00;99971.69;5048291;28;20290;-71
2022/08/19 05:52:50;;;;;;;10.43;8.23;;;;;;;20.29;100.00;99971.69;5046318;28;20219;-71
2022/08/19 05:55:16;;;;;;;9.87;7.97;;;;;;;20.37;100.00;99979.88;5047948;28;20187;-71
2022/08/19 05:57:42;;;;;;;10.63;7.93;;;;;;;20.42;100.00;99977.69;5043129;28;20203;-71
2022/08/19 06:00:11;;;;;;;12.53;8.50;;;;;;;20.51;100.00;99994.66;5037665;28;20206;-71
2022/08/19 06:02:38;;;;;;;13.17;8.97;;;;;;;20.64;100.00;99989.31;5045518;28;20208;-71
2022/08/19 06:05:08;;;;;;;10.60;8.40;;;;;;;20.78;100.00;100000.50;5044854;28;20195;-71
2022/08/19 06:07:35;;;;;;;9.50;8.03;;;;;;;20.90;100.00;100001.34;5041141;28;20199;-71
2022/08/19 06:10:03;;;;;;;10.43;8.57;;;;;;;20.99;100.00;99997.94;5031450;28;20204;-71
2022/08/19 06:12:32;;;;;;;12.17;8.47;;;;;;;21.12;100.00;100003.09;5026448;28;20224;-71
2022/08/19 06:15:00;;;;;;;10.97;8.43;;;;;;;21.21;100.00;99998.03;5037735;28;20532;-71
2022/08/19 06:17:26;;;;;;;11.97;8.17;;;;;;;21.34;100.00;100009.34;5036206;28;20203;-71
2022/08/19 06:19:53;;;;;;;10.23;8.07;;;;;;;21.34;100.00;100020.78;5047404;28;20678;-71
2022/08/19 06:22:19;;;;;;;13.23;8.80;;;;;;;21.37;100.00;100019.69;5045759;28;20226;-71
2022/08/19 06:24:46;;;;;;;10.30;8.10;;;;;;;21.39;100.00;100017.78;5035963;28;20204;-71
2022/08/19 06:27:15;;;;;;;11.17;8.70;;;;;;;21.41;100.00;100013.19;5047439;28;20211;-72
2022/08/19 06:29:42;;;;;;;11.90;7.90;;;;;;;21.34;100.00;100006.69;5052336;28;20582;-71
2022/08/19 06:32:09;;;;;;;10.20;7.90;;;;;;;21.42;100.00;100011.38;5048748;28;20229;-72
2022/08/19 06:34:36;;;;;;;10.30;8.10;;;;;;;21.38;100.00;100010.78;5048928;28;20325;-72
2022/08/19 06:37:02;;;;;;;12.33;8.27;;;;;;;21.34;100.00;100007.53;5048762;28;20266;-72
2022/08/19 06:39:32;;;;;;;10.13;8.27;;;;;;;21.37;100.00;100012.59;5050714;28;20256;-72
2022/08/19 06:42:02;;;;;;;11.07;7.80;;;;;;;21.42;100.00;100017.50;5069867;22;20219;-70
2022/08/19 06:44:34;;;;;;;9.67;7.43;;;;;;;21.58;100.00;100025.06;5065791;28;20203;-69
2022/08/19 06:47:02;;;;;;;9.90;8.03;;;;;;;21.72;100.00;100038.09;5063902;28;20199;-70
2022/08/19 06:49:30;;;;;;;11.50;8.00;;;;;;;21.87;100.00;100038.59;5066323;28;20195;-70
2022/08/19 06:51:58;;;;;;;9.65;7.95;;;;;;;21.95;100.00;100040.63;5067376;28;20230;-70
2022/08/19 06:54:25;;;;;;;10.52;8.63;;;;;;;21.96;100.00;100052.09;5068103;28;21075;-70
2022/08/19 06:56:52;;;;;;;10.05;8.05;;;;;;;21.98;100.00;100053.63;5066934;28;20233;-70
2022/08/19 06:59:20;;;;;;;10.05;7.43;;;;;;;22.08;100.00;100061.69;5073796;28;20203;-70
2022/08/19 07:01:50;;;;;;;9.43;7.90;;;;;;;22.13;100.00;100046.22;5068652;28;20305;-70
2022/08/19 07:04:18;;;;;;;11.55;8.38;;;;;;;22.23;100.00;100055.09;5066339;28;20613;-69
2022/08/19 07:06:45;;;;;;;10.20;8.10;;;;;;;22.25;100.00;100066.44;5062380;28;20217;-69
2022/08/19 07:09:15;;;;;;;11.35;7.72;;;;;;;22.27;100.00;100076.97;5068531;28;20591;-68
2022/08/19 07:11:46;;;;;;;8.63;7.43;;;;;;;22.24;100.00;100077.19;5072000;28;20776;-70
2022/08/19 07:14:13;;;;;;;12.20;7.95;;;;;;;22.20;100.00;100084.56;5069577;28;20206;-70
2022/08/19 07:16:41;;;;;;;12.45;8.65;;;;;;;22.15;100.00;100078.78;5069093;28;20197;-70
2022/08/19 07:19:08;;;;;;;10.68;8.60;;;;;;;22.12;100.00;100082.53;5074287;28;20209;-71
2022/08/19 07:21:36;;;;;;;10.52;8.10;;;;;;;22.12;100.00;100087.00;5066290;28;20694;-71
2022/08/19 07:24:03;;;;;;;11.05;8.27;;;;;;;22.09;100.00;100092.56;5068680;28;20206;-71
2022/08/19 07:26:31;;;;;;;10.02;7.50;;;;;;;21.99;100.00;100095.16;5067964;28;20219;-71
2022/08/19 07:28:59;;;;;;;10.65;7.88;;;;;;;21.90;100.00;100095.91;5067241;28;20210;-71
2022/08/19 07:31:28;;;;;;;10.48;8.48;;;;;;;21.88;100.00;100103.13;5062015;28;20230;-70
2022/08/19 07:33:56;;;;;;;11.25;8.15;;;;;;;21.78;100.00;100100.41;5067120;28;20599;-71
2022/08/19 07:36:28;;;;;;;11.05;8.45;;;;;;;21.75;100.00;100100.66;5065891;28;20577;-70
2022/08/19 07:38:54;;;;;;;10.10;8.55;;;;;;;21.77;100.00;100089.91;5064017;28;20240;-70
2022/08/19 07:41:24;;;;;;;11.20;8.10;;;;;;;21.77;100.00;100088.09;5065149;28;20305;-69
2022/08/19 07:43:51;;;;;;;10.68;8.32;;;;;;;21.79;100.00;100080.00;5064408;28;21049;-70
2022/08/19 07:46:20;;;;;;;13.95;9.32;;;;;;;21.80;100.00;100090.50;5066499;28;20215;-71
2022/08/19 07:48:48;;;;;;;11.40;8.73;;;;;;;21.83;100.00;100094.69;5067002;28;20198;-71
2022/08/19 07:51:18;;;;;;;13.38;8.68;;;;;;;21.84;100.00;100093.75;5066784;28;20697;-71
2022/08/19 07:53:46;;;;;;;12.93;8.68;;;;;;;21.85;100.00;100096.28;5073491;28;20578;-71
2022/08/19 07:56:14;;;;;;;10.88;8.48;;;;;;;21.83;100.00;100102.66;5070123;28;20234;-71
2022/08/19 07:58:43;;;;;;;11.70;8.63;;;;;;;21.75;100.00;100109.44;5074896;28;20206;-71
2022/08/19 08:01:11;;;;;;;10.77;8.48;;;;;;;21.77;100.00;100114.63;5071574;28;20206;-71
2022/08/19 08:09:11;;;;;;;11.77;8.77;;;;;;;21.72;100.00;100119.44;5064652;28;20262;-70
2022/08/19 08:11:37;;;;;;;11.43;8.75;;;;;;;21.70;100.00;100110.78;5059456;28;20221;-71
2022/08/19 08:14:04;;;;;;;11.40;8.98;;;;;;;21.68;100.00;100118.84;5062869;28;20194;-71
2022/08/19 08:16:31;;;;;;;13.70;9.75;;;;;;;21.71;100.00;100115.97;5066977;28;20226;-71
2022/08/19 08:18:59;;;;;;;12.90;9.95;;;;;;;21.70;100.00;100124.88;5073160;28;20225;-71
2022/08/19 08:21:26;;;;;;;12.02;9.43;;;;;;;21.69;100.00;100125.03;5074993;28;20260;-71
2022/08/19 08:23:55;;;;;;;12.90;10.05;;;;;;;21.63;100.00;100128.16;5072851;28;20205;-71
2022/08/19 08:26:23;;;;;;;12.02;9.23;;;;;;;21.61;100.00;100127.44;5080466;28;20293;-71
2022/08/19 08:28:49;;;;;;;12.77;9.10;;;;;;;21.66;100.00;100138.53;5072361;28;20198;-71
2022/08/19 08:31:16;;;;;;;11.25;9.10;;;;;;;21.58;100.00;100128.53;5069987;28;20210;-70
2022/08/19 08:33:42;;;;;;;13.52;9.20;;;;;;;21.57;100.00;100133.97;5079057;28;20204;-71
2022/08/19 08:36:09;;;;;;;11.23;8.80;;;;;;;21.53;100.00;100134.22;5067311;28;20210;-71
2022/08/19 08:38:37;;;;;;;12.63;9.43;;;;;;;21.62;100.00;100129.13;5067526;28;20186;-70
2022/08/19 08:41:10;;;;;;;14.77;9.52;;;;;;;21.54;100.00;100135.03;5070478;28;20198;-69
2022/08/19 08:43:42;;;;;;;10.73;8.52;;;;;;;21.66;100.00;100141.19;5067123;28;20254;-71
2022/08/19 08:46:17;;;;;;;12.85;8.68;;;;;;;21.72;100.00;100145.97;5069816;28;20207;-71
2022/08/19 08:48:50;;;;;;;10.57;8.23;;;;;;;21.78;100.00;100152.63;5069156;28;20190;-71
2022/08/19 08:51:21;;;;;;;13.85;9.20;;;;;;;21.77;100.00;100146.47;5096967;28;20245;-68
2022/08/19 08:53:51;;;;;;;11.65;8.45;;;;;;;21.85;100.00;100146.69;5095654;28;20217;-69
2022/08/19 08:56:18;;;;;;;11.45;8.25;;;;;;;21.97;100.00;100141.34;5092919;28;20267;-68
2022/08/19 08:58:52;;;;;;;10.38;8.60;;;;;;;22.13;100.00;100134.66;5097054;28;20226;-69
2022/08/19 09:01:18;;;;;;;12.10;8.98;;;;;;;22.19;100.00;100135.97;5091832;28;20190;-68
2022/08/19 09:03:45;;;;;;;10.35;8.25;;;;;;;22.30;100.00;100133.31;5082104;28;20256;-68
2022/08/19 09:06:21;;;;;;;12.82;9.02;;;;;;;22.39;100.00;100142.31;5068003;28;20205;-70
2022/08/19 09:08:59;;;;;;;11.50;8.98;;;;;;;22.44;100.00;100147.22;5071030;28;20224;-70
2022/08/19 09:11:44;;;;;;;12.27;9.05;;;;;;;22.62;100.00;100145.69;5067433;28;20213;-70
2022/08/19 09:14:24;;;;;;;14.32;9.82;;;;;;;22.88;100.00;100142.63;5069486;28;20305;-71
2022/08/19 09:16:51;;;;;;;12.20;8.77;;;;;;;23.20;100.00;100136.38;5065086;28;20191;-70
2022/08/19 09:19:18;;;;;;;12.32;9.63;;;;;;;23.38;100.00;100142.75;5067723;28;20694;-71
2022/08/19 09:21:45;;;;;;;15.05;9.95;;;;;;;23.53;100.00;100145.88;5071787;28;20217;-71
2022/08/19 09:24:12;;;;;;;11.48;8.77;;;;;;;23.50;100.00;100139.97;5068746;28;20252;-70
2022/08/19 09:26:38;;;;;;;12.68;9.38;;;;;;;23.51;100.00;100133.69;5064152;28;20702;-70
2022/08/19 09:29:05;;;;;;;11.40;9.10;;;;;;;23.45;100.00;100132.44;5066003;28;20675;-68
2022/08/19 09:31:33;;;;;;;11.68;9.07;;;;;;;23.51;100.00;100131.88;5065162;28;20202;-71
2022/08/19 09:34:00;;;;;;;12.65;9.73;;;;;;;23.48;100.00;100148.09;5063379;28;20577;-71
2022/08/19 09:36:32;;;;;;;10.70;9.25;;;;;;;23.41;100.00;100154.94;5062574;28;20197;-70
2022/08/19 09:38:59;;;;;;;11.30;9.43;;;;;;;23.43;100.00;100153.00;5064090;28;20566;-71
2022/08/19 09:41:26;;;;;;;11.35;9.30;;;;;;;23.40;100.00;100159.41;5060505;28;20194;-71
2022/08/19 09:43:56;;;;;;;12.63;9.00;;;;;;;23.41;100.00;100163.78;5066764;28;20202;-70
2022/08/19 09:46:24;;;;;;;12.02;9.52;;;;;;;23.40;100.00;100163.91;5061493;28;20269;-71
2022/08/19 09:48:53;;;;;;;12.63;8.52;;;;;;;23.31;100.00;100157.56;5060324;28;20191;-71
2022/08/19 09:51:21;;;;;;;9.88;8.52;;;;;;;23.31;100.00;100162.88;5063020;28;20190;-69
2022/08/19 09:53:50;;;;;;;11.52;9.07;;;;;;;23.24;100.00;100153.75;5070741;28;20588;-70
2022/08/19 09:56:19;;;;;;;10.98;9.23;;;;;;;23.14;100.00;100166.16;5063071;28;20256;-71
2022/08/19 09:58:46;;;;;;;11.00;8.98;;;;;;;23.06;100.00;100161.53;5062820;28;20224;-71
2022/08/19 10:01:18;;;;;;;10.95;8.43;;;;;;;23.02;100.00;100146.75;5066456;28;20694;-70
2022/08/19 10:03:49;;;;;;;10.48;8.70;;;;;;;23.05;100.00;100143.88;5066228;28;20230;-71
2022/08/19 10:06:18;;;;;;;12.82;9.13;;;;;;;23.08;100.00;100145.41;5071624;28;20198;-71
2022/08/19 10:08:45;;;;;;;11.65;8.85;;;;;;;23.09;100.00;100155.91;5069773;28;20249;-69
2022/08/19 10:11:14;;;;;;;11.20;8.68;;;;;;;23.10;100.00;100154.97;5069107;28;20578;-71
2022/08/19 10:13:41;;;;;;;11.77;9.43;;;;;;;23.09;100.00;100141.78;5071580;28;20774;-71
2022/08/19 10:16:12;;;;;;;11.90;9.00;;;;;;;23.06;100.00;100140.25;5070067;28;20234;-71
2022/08/19 10:18:42;;;;;;;10.63;8.88;;;;;;;23.16;100.00;100140.28;5073710;28;20194;-70
2022/08/19 10:21:11;;;;;;;10.68;9.00;;;;;;;23.24;100.00;100149.28;5069430;28;20223;-71
2022/08/19 10:23:44;;;;;;;12.52;9.38;;;;;;;23.31;100.00;100143.44;5084019;28;20218;-70
2022/08/19 10:26:14;;;;;;;14.65;10.05;;;;;;;23.37;100.00;100151.69;5069986;28;20214;-71
2022/08/19 10:28:41;;;;;;;12.63;8.50;;;;;;;23.50;100.00;100143.50;5071607;28;20214;-71
2022/08/19 10:31:10;;;;;;;13.32;9.30;;;;;;;23.54;100.00;100146.72;5073599;28;20209;-70
2022/08/19 10:33:37;;;;;;;16.15;10.77;;;;;;;23.63;100.00;100145.91;5066494;28;20228;-71
2022/08/19 10:36:07;;;;;;;12.15;9.75;;;;;;;23.55;100.00;100143.06;5067513;28;20221;-68
2022/08/19 10:38:34;;;;;;;10.85;9.25;;;;;;;23.50;100.00;100143.50;5068620;28;20199;-70
2022/08/19 10:41:09;;;;;;;12.48;9.38;;;;;;;23.54;100.00;100157.38;5069200;28;20199;-70
2022/08/19 10:43:37;;;;;;;12.98;10.38;;;;;;;23.63;100.00;100162.72;5063712;28;20222;-70
2022/08/19 10:46:05;;;;;;;11.52;9.40;;;;;;;23.70;100.00;100167.50;5067157;28;20194;-70
2022/08/19 10:48:32;;;;;;;12.05;9.32;;;;;;;23.77;100.00;100166.81;5072677;28;21001;-70
2022/08/19 10:53:43;;;;;;;13.55;10.75;;;;;;;23.71;100.00;100179.81;5067471;28;20710;-71
2022/08/19 10:58:57;;;;;;;12.13;10.48;;;;;;;23.59;100.00;100187.09;5073830;28;20257;-71
2022/08/19 11:01:24;;;;;;;15.20;10.98;;;;;;;23.47;100.00;100194.31;5068664;28;20264;-70
2022/08/19 11:03:50;;;;;;;13.55;10.43;;;;;;;23.54;100.00;100202.59;5066255;28;20543;-69
2022/08/19 11:06:17;;;;;;;13.75;10.27;;;;;;;23.54;100.00;100194.63;5058890;28;20203;-70
2022/08/19 11:08:44;;;;;;;11.77;10.52;;;;;;;23.55;100.00;100196.28;5062980;28;20281;-70
2022/08/19 11:11:12;;;;;;;13.80;11.00;;;;;;;23.58;100.00;100193.38;5067580;28;20214;-70
2022/08/19 11:13:42;;;;;;;16.70;11.40;;;;;;;23.57;100.00;100203.19;5068757;28;20213;-70
2022/08/19 11:16:13;;;;;;;15.73;11.15;;;;;;;23.60;100.00;100199.38;5066618;28;20202;-69
2022/08/19 11:18:43;;;;;;;15.10;10.50;;;;;;;23.61;100.00;100199.25;5068727;28;20222;-71
2022/08/19 11:21:13;;;;;;;14.45;10.30;;;;;;;23.67;100.00;100205.03;5070376;28;20604;-71
2022/08/19 11:23:39;;;;;;;15.00;11.07;;;;;;;23.69;100.00;100209.22;5072345;28;20244;-71
2022/08/19 11:26:06;;;;;;;13.30;10.73;;;;;;;23.59;100.00;100208.38;5063646;28;20294;-69
2022/08/19 11:28:34;;;;;;;14.35;11.07;;;;;;;23.60;100.00;100216.19;5071005;28;20221;-70
2022/08/19 11:31:02;;;;;;;13.60;11.07;;;;;;;23.62;100.00;100221.38;5065360;28;20233;-71
2022/08/19 11:33:28;;;;;;;13.93;11.70;;;;;;;23.52;100.00;100221.34;5067326;28;20784;-70
2022/08/19 11:35:55;;;;;;;13.60;10.65;;;;;;;23.48;100.00;100229.72;5072176;28;20705;-70
2022/08/19 11:38:21;;;;;;;12.40;10.93;;;;;;;23.42;100.00;100237.25;5067631;28;20207;-70
2022/08/19 11:40:55;;;;;;;15.02;10.95;;;;;;;23.36;100.00;100240.47;5068731;28;20201;-71